createdAt,value
2018-07-23T00:00:17.170Z,31.30
2018-07-23T00:01:17.413Z,29.80
2018-07-23T00:02:17.656Z,32.10
2018-07-23T00:03:17.899Z,30.10
2018-07-23T00:04:18.142Z,30.00
2018-07-23T00:05:18.384Z,27.20
2018-07-23T00:06:18.626Z,27.00
2018-07-23T00:07:18.872Z,26.30
2018-07-23T00:08:19.112Z,25.80
2018-07-23T00:09:19.355Z,25.90
2018-07-23T00:10:19.599Z,27.10
2018-07-23T00:11:19.841Z,24.60
2018-07-23T00:12:20.084Z,24.20
2018-07-23T00:13:20.326Z,23.10
2018-07-23T00:14:20.570Z,22.70
2018-07-23T00:15:20.815Z,23.30
2018-07-23T00:16:21.059Z,24.20
2018-07-23T00:17:21.303Z,24.70
2018-07-23T00:18:21.546Z,25.50
2018-07-23T00:19:21.788Z,25.00
2018-07-23T00:20:22.032Z,26.00
2018-07-23T00:21:22.276Z,26.70
2018-07-23T00:22:22.521Z,28.20
2018-07-23T00:23:22.765Z,29.20
2018-07-23T00:24:23.008Z,29.60
2018-07-23T00:25:23.252Z,28.40
2018-07-23T00:26:23.494Z,28.40
2018-07-23T00:27:23.737Z,29.70
2018-07-23T00:28:23.978Z,30.30
2018-07-23T00:29:24.222Z,33.50
2018-07-23T00:30:24.464Z,32.90
2018-07-23T00:31:24.705Z,35.80
2018-07-23T00:32:24.949Z,34.70
2018-07-23T00:33:25.192Z,33.70
2018-07-23T00:34:25.435Z,28.50
2018-07-23T00:35:25.678Z,29.50
2018-07-23T00:36:25.923Z,31.20
2018-07-23T00:37:26.166Z,31.40
2018-07-23T00:38:26.409Z,35.30
2018-07-23T00:39:26.653Z,34.10
2018-07-23T00:40:26.897Z,35.10
2018-07-23T00:41:27.140Z,31.90
2018-07-23T00:42:27.383Z,32.70
2018-07-23T00:43:27.626Z,31.60
2018-07-23T00:44:27.868Z,30.80
2018-07-23T00:45:28.112Z,30.70
2018-07-23T00:46:28.356Z,30.70
2018-07-23T00:47:28.597Z,31.30
2018-07-23T00:48:28.838Z,31.20
2018-07-23T00:49:29.079Z,30.40
2018-07-23T00:50:29.322Z,31.50
2018-07-23T00:51:29.568Z,31.90
2018-07-23T00:52:29.812Z,32.20
2018-07-23T00:53:30.049Z,32.30
2018-07-23T00:54:30.291Z,33.00
2018-07-23T00:55:30.530Z,34.20
2018-07-23T00:56:30.779Z,33.20
2018-07-23T00:57:31.016Z,32.00
2018-07-23T00:58:31.258Z,32.90
2018-07-23T00:59:31.501Z,31.10
2018-07-23T01:00:31.744Z,29.50
2018-07-23T01:01:31.986Z,31.80
2018-07-23T01:02:32.228Z,30.50
2018-07-23T01:03:32.471Z,29.50
2018-07-23T01:04:32.713Z,29.00
2018-07-23T01:05:32.954Z,28.30
2018-07-23T01:06:33.197Z,27.60
2018-07-23T01:07:33.438Z,27.60
2018-07-23T01:08:33.682Z,28.50
2018-07-23T01:09:33.922Z,28.50
2018-07-23T01:10:34.166Z,28.90
2018-07-23T01:11:34.408Z,30.30
2018-07-23T01:12:34.648Z,29.60
2018-07-23T01:13:34.892Z,29.00
2018-07-23T01:14:35.133Z,29.00
2018-07-23T01:15:35.375Z,28.80
2018-07-23T01:16:35.616Z,32.10
2018-07-23T01:17:35.858Z,31.10
2018-07-23T01:18:36.101Z,29.10
2018-07-23T01:19:36.344Z,30.10
2018-07-23T01:20:36.572Z,31.00
2018-07-23T01:21:36.833Z,33.10
2018-07-23T01:22:37.076Z,31.50
2018-07-23T01:23:37.318Z,30.30
2018-07-23T01:24:37.559Z,30.30
2018-07-23T01:25:37.799Z,31.10
2018-07-23T01:26:38.043Z,30.80
2018-07-23T01:27:38.282Z,31.50
2018-07-23T01:28:38.528Z,36.40
2018-07-23T01:29:38.767Z,42.10
2018-07-23T01:30:39.008Z,39.20
2018-07-23T01:31:39.252Z,39.80
2018-07-23T01:32:39.494Z,41.00
2018-07-23T01:33:39.736Z,41.80
2018-07-23T01:34:39.978Z,43.10
2018-07-23T01:35:40.218Z,43.70
2018-07-23T01:36:40.460Z,44.20
2018-07-23T01:37:40.703Z,43.80
2018-07-23T01:38:40.943Z,42.70
2018-07-23T01:39:41.185Z,39.10
2018-07-23T01:40:41.425Z,41.40
2018-07-23T01:41:41.667Z,40.10
2018-07-23T01:42:41.911Z,45.90
2018-07-23T01:43:42.154Z,48.10
2018-07-23T01:44:42.394Z,50.20
2018-07-23T01:45:42.636Z,51.20
2018-07-23T01:46:42.879Z,50.20
2018-07-23T01:47:43.122Z,50.20
2018-07-23T01:48:43.364Z,52.70
2018-07-23T01:49:43.608Z,54.30
2018-07-23T01:50:43.849Z,54.40
2018-07-23T01:51:44.091Z,54.30
2018-07-23T01:52:44.336Z,52.60
2018-07-23T01:53:44.576Z,52.00
2018-07-23T01:54:44.817Z,51.60
2018-07-23T01:55:45.060Z,48.80
2018-07-23T01:56:45.301Z,47.30
2018-07-23T01:57:45.543Z,44.30
2018-07-23T01:58:45.785Z,42.30
2018-07-23T01:59:46.026Z,41.40
2018-07-23T02:00:46.267Z,41.80
2018-07-23T02:01:46.511Z,43.40
2018-07-23T02:02:46.752Z,41.60
2018-07-23T02:03:46.993Z,43.40
2018-07-23T02:04:47.234Z,45.40
2018-07-23T02:05:47.477Z,45.30
2018-07-23T02:06:47.725Z,42.70
2018-07-23T02:07:47.964Z,41.50
2018-07-23T02:08:48.202Z,41.50
2018-07-23T02:09:48.444Z,42.20
2018-07-23T02:10:48.686Z,39.30
2018-07-23T02:11:48.932Z,40.90
2018-07-23T02:12:49.168Z,41.50
2018-07-23T02:13:49.410Z,41.90
2018-07-23T02:14:49.652Z,41.40
2018-07-23T02:15:49.895Z,40.50
2018-07-23T02:16:50.137Z,41.40
2018-07-23T02:17:50.399Z,39.80
2018-07-23T02:18:50.623Z,40.20
2018-07-23T02:19:50.863Z,38.40
2018-07-23T02:20:51.103Z,38.20
2018-07-23T02:21:51.345Z,36.50
2018-07-23T02:22:51.586Z,37.30
2018-07-23T02:23:51.825Z,40.70
2018-07-23T02:24:52.066Z,39.70
2018-07-23T02:25:52.307Z,37.90
2018-07-23T02:26:52.550Z,41.10
2018-07-23T02:27:52.798Z,43.20
2018-07-23T02:28:53.033Z,41.50
2018-07-23T02:29:53.274Z,40.80
2018-07-23T02:30:53.516Z,37.30
2018-07-23T02:31:53.759Z,40.60
2018-07-23T02:32:53.998Z,42.90
2018-07-23T02:33:54.239Z,40.80
2018-07-23T02:34:54.480Z,41.30
2018-07-23T02:35:54.722Z,39.30
2018-07-23T02:36:54.962Z,40.50
2018-07-23T02:37:55.205Z,42.10
2018-07-23T02:38:55.475Z,45.00
2018-07-23T02:39:55.689Z,44.30
2018-07-23T02:40:55.926Z,41.40
2018-07-23T02:41:56.167Z,43.00
2018-07-23T02:42:56.408Z,44.00
2018-07-23T02:43:56.649Z,44.10
2018-07-23T02:44:56.891Z,43.90
2018-07-23T02:45:57.133Z,45.30
2018-07-23T02:46:57.372Z,43.20
2018-07-23T02:47:57.616Z,44.10
2018-07-23T02:48:57.856Z,43.10
2018-07-23T02:49:58.098Z,45.30
2018-07-23T02:50:58.337Z,44.20
2018-07-23T02:51:58.580Z,41.70
2018-07-23T02:52:58.822Z,43.00
2018-07-23T02:53:59.063Z,45.30
2018-07-23T02:54:59.305Z,44.10
2018-07-23T02:55:59.546Z,46.10
2018-07-23T02:56:59.788Z,49.70
2018-07-23T02:58:00.032Z,48.30
2018-07-23T02:59:00.272Z,48.50
2018-07-23T03:00:00.519Z,51.40
2018-07-23T03:01:00.758Z,52.50
2018-07-23T03:02:01.000Z,50.70
2018-07-23T03:03:01.243Z,50.10
2018-07-23T03:04:01.484Z,51.90
2018-07-23T03:05:01.724Z,52.30
2018-07-23T03:06:01.966Z,53.70
2018-07-23T03:07:02.207Z,52.20
2018-07-23T03:08:02.448Z,48.10
2018-07-23T03:09:02.692Z,45.00
2018-07-23T03:10:02.939Z,43.90
2018-07-23T03:11:03.174Z,44.30
2018-07-23T03:12:03.416Z,44.50
2018-07-23T03:13:03.659Z,45.30
2018-07-23T03:14:03.901Z,45.60
2018-07-23T03:15:04.142Z,48.10
2018-07-23T03:16:04.383Z,48.50
2018-07-23T03:17:04.623Z,47.90
2018-07-23T03:18:04.866Z,51.10
2018-07-23T03:19:05.109Z,49.10
2018-07-23T03:20:05.349Z,47.70
2018-07-23T03:21:05.592Z,48.70
2018-07-23T03:22:05.835Z,50.50
2018-07-23T03:23:06.081Z,49.30
2018-07-23T03:24:06.320Z,51.90
2018-07-23T03:25:06.565Z,52.50
2018-07-23T03:26:06.808Z,50.70
2018-07-23T03:27:07.046Z,51.70
2018-07-23T03:28:07.287Z,49.10
2018-07-23T03:29:07.531Z,50.10
2018-07-23T03:30:07.772Z,48.70
2018-07-23T03:31:08.014Z,49.90
2018-07-23T03:32:08.257Z,52.20
2018-07-23T03:33:08.498Z,52.50
2018-07-23T03:34:08.742Z,50.50
2018-07-23T03:35:08.984Z,50.10
2018-07-23T03:36:09.226Z,53.20
2018-07-23T03:37:09.468Z,54.10
2018-07-23T03:38:09.708Z,55.10
2018-07-23T03:39:09.959Z,55.20
2018-07-23T03:40:10.193Z,54.50
2018-07-23T03:41:10.435Z,53.30
2018-07-23T03:42:10.681Z,54.40
2018-07-23T03:43:10.920Z,53.10
2018-07-23T03:44:11.162Z,53.20
2018-07-23T03:45:11.404Z,50.80
2018-07-23T03:46:11.646Z,51.10
2018-07-23T03:47:11.888Z,51.10
2018-07-23T03:48:12.130Z,50.30
2018-07-23T03:49:12.372Z,49.10
2018-07-23T03:50:12.615Z,47.70
2018-07-23T03:51:12.857Z,51.10
2018-07-23T03:52:13.105Z,52.30
2018-07-23T03:53:13.340Z,47.00
2018-07-23T03:54:13.583Z,41.30
2018-07-23T03:55:13.824Z,42.10
2018-07-23T03:56:14.068Z,44.30
2018-07-23T03:57:14.306Z,46.60
2018-07-23T03:58:14.550Z,47.00
2018-07-23T03:59:14.791Z,51.40
2018-07-23T04:00:15.033Z,50.70
2018-07-23T04:01:15.274Z,45.50
2018-07-23T04:02:15.515Z,44.50
2018-07-23T04:03:15.757Z,46.00
2018-07-23T04:04:15.997Z,45.80
2018-07-23T04:05:16.245Z,44.10
2018-07-23T04:06:16.481Z,44.00
2018-07-23T04:07:16.722Z,40.40
2018-07-23T04:08:16.965Z,37.60
2018-07-23T04:09:17.205Z,36.80
2018-07-23T04:10:17.448Z,35.20
2018-07-23T04:11:17.691Z,33.80
2018-07-23T04:12:17.932Z,34.40
2018-07-23T04:13:18.175Z,38.70
2018-07-23T04:14:18.414Z,40.70
2018-07-23T04:15:18.657Z,38.60
2018-07-23T04:16:18.902Z,50.00
2018-07-23T04:17:19.141Z,41.30
2018-07-23T04:18:19.383Z,45.40
2018-07-23T04:19:19.623Z,45.80
2018-07-23T04:20:19.865Z,40.10
2018-07-23T04:21:20.107Z,40.50
2018-07-23T04:22:20.348Z,41.70
2018-07-23T04:23:20.590Z,42.60
2018-07-23T04:24:20.832Z,40.70
2018-07-23T04:25:21.078Z,40.80
2018-07-23T04:26:21.321Z,43.10
2018-07-23T04:27:21.562Z,41.70
2018-07-23T04:28:21.804Z,41.00
2018-07-23T04:29:22.047Z,39.60
2018-07-23T04:30:22.288Z,40.80
2018-07-23T04:31:22.528Z,42.50
2018-07-23T04:32:22.774Z,39.40
2018-07-23T04:33:23.013Z,37.80
2018-07-23T04:34:23.257Z,34.70
2018-07-23T04:35:23.495Z,34.00
2018-07-23T04:36:23.739Z,32.10
2018-07-23T04:37:23.981Z,33.90
2018-07-23T04:38:24.223Z,36.40
2018-07-23T04:39:24.467Z,35.40
2018-07-23T04:40:24.710Z,35.10
2018-07-23T04:41:24.951Z,35.40
2018-07-23T04:42:25.226Z,35.70
2018-07-23T04:43:25.436Z,35.40
2018-07-23T04:44:25.678Z,33.30
2018-07-23T04:45:25.921Z,33.40
2018-07-23T04:46:26.165Z,32.10
2018-07-23T04:47:26.405Z,31.30
2018-07-23T04:48:26.649Z,31.50
2018-07-23T04:49:26.898Z,32.00
2018-07-23T04:50:27.132Z,31.10
2018-07-23T04:51:27.374Z,30.90
2018-07-23T04:52:27.617Z,32.40
2018-07-23T04:53:27.860Z,31.90
2018-07-23T04:54:28.104Z,31.80
2018-07-23T04:55:28.345Z,30.80
2018-07-23T04:56:28.588Z,30.80
2018-07-23T04:57:28.833Z,29.20
2018-07-23T04:58:29.077Z,28.80
2018-07-23T04:59:29.320Z,27.20
2018-07-23T05:00:29.563Z,27.90
2018-07-23T05:01:29.805Z,27.80
2018-07-23T05:02:30.047Z,27.00
2018-07-23T05:03:30.291Z,28.10
2018-07-23T05:04:30.531Z,28.30
2018-07-23T05:05:30.772Z,27.30
2018-07-23T05:06:31.017Z,27.60
2018-07-23T05:07:31.264Z,28.30
2018-07-23T05:08:31.521Z,28.10
2018-07-23T05:09:31.743Z,29.90
2018-07-23T05:10:31.985Z,29.20
2018-07-23T05:11:32.228Z,28.70
2018-07-23T05:12:32.472Z,28.90
2018-07-23T05:13:32.714Z,29.50
2018-07-23T05:14:32.957Z,28.40
2018-07-23T05:15:33.200Z,29.30
2018-07-23T05:16:33.441Z,28.50
2018-07-23T05:17:33.684Z,27.60
2018-07-23T05:18:33.928Z,27.80
2018-07-23T05:19:34.171Z,29.20
2018-07-23T05:20:34.414Z,29.60
2018-07-23T05:21:34.660Z,29.10
2018-07-23T05:22:34.900Z,29.90
2018-07-23T05:23:35.142Z,30.00
2018-07-23T05:24:35.468Z,28.90
2018-07-23T05:25:35.635Z,28.60
2018-07-23T05:26:35.871Z,29.00
2018-07-23T05:27:36.116Z,29.70
2018-07-23T05:28:36.360Z,29.50
2018-07-23T05:29:36.605Z,28.90
2018-07-23T05:30:36.847Z,29.10
2018-07-23T05:31:37.113Z,28.40
2018-07-23T05:32:37.337Z,29.60
2018-07-23T05:33:37.580Z,28.70
2018-07-23T05:34:37.825Z,28.40
2018-07-23T05:35:38.068Z,28.60
2018-07-23T05:36:38.313Z,27.80
2018-07-23T05:37:38.557Z,27.30
2018-07-23T05:38:38.882Z,26.30
2018-07-23T05:39:39.045Z,26.10
2018-07-23T05:40:39.289Z,25.20
2018-07-23T05:41:39.535Z,25.90
2018-07-23T05:42:39.776Z,27.10
2018-07-23T05:43:40.021Z,27.00
2018-07-23T05:44:40.266Z,25.70
2018-07-23T05:45:40.509Z,25.10
2018-07-23T05:46:40.753Z,26.20
2018-07-23T05:47:40.997Z,25.10
2018-07-23T05:48:41.241Z,24.90
2018-07-23T05:49:41.486Z,24.50
2018-07-23T05:50:41.731Z,24.80
2018-07-23T05:51:41.973Z,24.00
2018-07-23T05:52:42.220Z,25.10
2018-07-23T05:53:42.466Z,24.80
2018-07-23T05:54:42.710Z,25.00
2018-07-23T05:55:42.956Z,22.90
2018-07-23T05:56:43.200Z,23.80
2018-07-23T05:57:43.496Z,23.80
2018-07-23T05:58:43.694Z,23.10
2018-07-23T05:59:43.936Z,23.60
2018-07-23T06:00:44.182Z,23.60
2018-07-23T06:01:44.414Z,23.50
2018-07-23T06:02:44.657Z,22.90
2018-07-23T06:03:44.938Z,22.00
2018-07-23T06:04:45.143Z,22.70
2018-07-23T06:05:45.386Z,23.00
2018-07-23T06:06:45.672Z,21.80
2018-07-23T06:07:45.876Z,21.40
2018-07-23T06:08:46.125Z,23.10
2018-07-23T06:09:46.366Z,22.60
2018-07-23T06:10:46.615Z,21.80
2018-07-23T06:11:46.862Z,21.70
2018-07-23T06:12:47.103Z,22.00
2018-07-23T06:13:47.348Z,23.00
2018-07-23T06:14:47.594Z,22.50
2018-07-23T06:15:47.836Z,22.80
2018-07-23T06:16:48.082Z,21.60
2018-07-23T06:17:48.328Z,22.70
2018-07-23T06:18:48.574Z,22.40
2018-07-23T06:19:48.832Z,21.20
2018-07-23T06:20:49.068Z,21.90
2018-07-23T06:21:49.311Z,21.60
2018-07-23T06:22:49.558Z,22.60
2018-07-23T06:23:49.802Z,21.10
2018-07-23T06:24:50.049Z,21.10
2018-07-23T06:25:50.319Z,20.90
2018-07-23T06:26:50.541Z,22.00
2018-07-23T06:27:50.788Z,20.70
2018-07-23T06:28:51.031Z,20.40
2018-07-23T06:29:51.280Z,19.60
2018-07-23T06:30:51.524Z,19.00
2018-07-23T06:31:51.773Z,20.90
2018-07-23T06:32:52.015Z,20.10
2018-07-23T06:33:52.292Z,20.10
2018-07-23T06:34:52.505Z,20.10
2018-07-23T06:35:52.754Z,19.80
2018-07-23T06:36:52.998Z,19.00
2018-07-23T06:37:53.247Z,18.30
2018-07-23T06:38:53.490Z,18.30
2018-07-23T06:39:53.736Z,17.60
2018-07-23T06:40:54.012Z,18.00
2018-07-23T06:41:54.274Z,17.40
2018-07-23T06:42:54.531Z,17.00
2018-07-23T06:43:54.777Z,17.30
2018-07-23T06:44:55.023Z,17.70
2018-07-23T06:45:55.264Z,17.00
2018-07-23T06:46:55.511Z,16.20
2018-07-23T06:47:55.759Z,16.30
2018-07-23T06:48:56.007Z,16.40
2018-07-23T06:49:56.250Z,16.90
2018-07-23T06:50:56.491Z,15.70
2018-07-23T06:51:56.737Z,16.10
2018-07-23T06:52:56.984Z,16.40
2018-07-23T06:53:57.256Z,15.40
2018-07-23T06:54:57.477Z,15.90
2018-07-23T06:55:57.727Z,14.40
2018-07-23T06:56:57.964Z,14.90
2018-07-23T06:57:58.211Z,15.20
2018-07-23T06:58:58.463Z,14.30
2018-07-23T06:59:58.711Z,15.00
2018-07-23T07:00:58.959Z,15.40
2018-07-23T07:01:59.205Z,15.20
2018-07-23T07:02:59.452Z,15.80
2018-07-23T07:03:59.698Z,14.10
2018-07-23T07:04:59.947Z,15.00
2018-07-23T07:06:00.192Z,15.90
2018-07-23T07:07:00.438Z,14.80
2018-07-23T07:08:00.686Z,15.00
2018-07-23T07:09:00.933Z,14.70
2018-07-23T07:10:01.179Z,14.80
2018-07-23T07:11:01.521Z,14.60
2018-07-23T07:12:01.677Z,13.50
2018-07-23T07:13:01.925Z,13.50
2018-07-23T07:14:02.173Z,13.90
2018-07-23T07:15:02.422Z,13.20
2018-07-23T07:16:02.669Z,14.10
2018-07-23T07:17:02.919Z,12.40
2018-07-23T07:18:03.165Z,12.40
2018-07-23T07:19:03.413Z,12.40
2018-07-23T07:20:03.662Z,12.60
2018-07-23T07:21:03.909Z,12.00
2018-07-23T07:22:04.162Z,12.00
2018-07-23T07:23:04.406Z,12.00
2018-07-23T07:24:04.655Z,12.00
2018-07-23T07:25:04.903Z,11.60
2018-07-23T07:26:05.153Z,10.90
2018-07-23T07:27:05.401Z,11.50
2018-07-23T07:28:05.651Z,10.90
2018-07-23T07:29:05.904Z,15.10
2018-07-23T07:30:06.150Z,12.20
2018-07-23T07:31:06.397Z,10.80
2018-07-23T07:32:06.648Z,10.80
2018-07-23T07:33:06.897Z,14.90
2018-07-23T07:34:07.144Z,12.20
2018-07-23T07:35:07.392Z,18.20
2018-07-23T07:36:07.642Z,12.20
2018-07-23T07:37:07.889Z,10.50
2018-07-23T07:38:08.169Z,9.90
2018-07-23T07:39:08.390Z,9.90
2018-07-23T07:40:08.639Z,10.60
2018-07-23T07:41:08.888Z,10.60
2018-07-23T07:42:09.139Z,10.10
2018-07-23T07:43:09.390Z,10.20
2018-07-23T07:44:09.641Z,9.40
2018-07-23T07:45:09.895Z,9.90
2018-07-23T07:46:10.141Z,9.80
2018-07-23T07:47:10.391Z,10.50
2018-07-23T07:48:10.643Z,10.10
2018-07-23T07:49:10.896Z,10.30
2018-07-23T07:50:11.149Z,9.50
2018-07-23T07:51:11.401Z,10.10
2018-07-23T07:52:11.652Z,9.40
2018-07-23T07:53:11.902Z,10.20
2018-07-23T07:54:12.155Z,9.40
2018-07-23T07:55:12.406Z,9.80
2018-07-23T07:56:12.662Z,8.80
2018-07-23T07:57:12.910Z,9.80
2018-07-23T07:58:13.162Z,8.90
2018-07-23T07:59:13.454Z,9.20
2018-07-23T08:00:13.671Z,8.90
2018-07-23T08:01:13.920Z,8.80
2018-07-23T08:02:14.172Z,9.00
2018-07-23T08:03:14.427Z,8.60
2018-07-23T08:04:14.681Z,8.90
2018-07-23T08:05:14.933Z,9.10
2018-07-23T08:06:15.187Z,8.60
2018-07-23T08:07:15.511Z,8.00
2018-07-23T08:08:15.694Z,8.20
2018-07-23T08:09:15.951Z,9.40
2018-07-23T08:10:16.204Z,8.40
2018-07-23T08:11:16.458Z,8.40
2018-07-23T08:12:16.712Z,9.50
2018-07-23T08:13:16.968Z,8.90
2018-07-23T08:14:17.220Z,10.90
2018-07-23T08:15:17.474Z,10.00
2018-07-23T08:16:17.729Z,9.30
2018-07-23T08:17:17.991Z,9.10
2018-07-23T08:18:18.239Z,9.20
2018-07-23T08:19:18.492Z,8.80
2018-07-23T08:20:18.746Z,8.70
2018-07-23T08:21:18.999Z,8.90
2018-07-23T08:22:19.253Z,9.10
2018-07-23T08:23:19.505Z,9.70
2018-07-23T08:24:19.761Z,9.50
2018-07-23T08:25:20.015Z,8.80
2018-07-23T08:26:20.268Z,9.30
2018-07-23T08:27:20.523Z,9.10
2018-07-23T08:28:20.778Z,8.50
2018-07-23T08:29:21.035Z,8.50
2018-07-23T08:30:21.294Z,8.60
2018-07-23T08:31:21.548Z,8.30
2018-07-23T08:32:21.874Z,7.50
2018-07-23T08:33:22.060Z,8.20
2018-07-23T08:34:22.313Z,8.70
2018-07-23T08:35:22.568Z,8.20
2018-07-23T08:36:22.821Z,8.40
2018-07-23T08:37:23.074Z,8.80
2018-07-23T08:38:23.330Z,8.30
2018-07-23T08:39:23.585Z,8.40
2018-07-23T08:40:23.841Z,8.00
2018-07-23T08:41:24.096Z,8.50
2018-07-23T08:42:24.354Z,7.40
2018-07-23T08:43:24.605Z,7.30
2018-07-23T08:44:24.860Z,7.30
2018-07-23T08:45:25.116Z,7.30
2018-07-23T08:46:25.371Z,8.00
2018-07-23T08:47:25.623Z,7.80
2018-07-23T08:48:25.881Z,7.60
2018-07-23T08:49:26.138Z,7.00
2018-07-23T08:50:26.389Z,7.50
2018-07-23T08:51:26.702Z,6.80
2018-07-23T08:52:26.902Z,6.20
2018-07-23T08:53:27.158Z,7.00
2018-07-23T08:54:27.418Z,7.20
2018-07-23T08:55:27.668Z,7.30
2018-07-23T08:56:27.922Z,6.30
2018-07-23T08:57:28.186Z,6.10
2018-07-23T08:58:28.430Z,6.20
2018-07-23T08:59:28.673Z,6.10
2018-07-23T09:00:28.937Z,5.80
2018-07-23T09:01:29.195Z,5.50
2018-07-23T09:02:29.447Z,5.70
2018-07-23T09:03:29.704Z,6.20
2018-07-23T09:04:29.956Z,6.10
2018-07-23T09:05:30.211Z,5.80
2018-07-23T09:06:30.463Z,5.30
2018-07-23T09:07:30.719Z,5.40
2018-07-23T09:08:31.026Z,5.30
2018-07-23T09:09:31.227Z,4.60
2018-07-23T09:10:31.481Z,5.30
2018-07-23T09:11:31.737Z,5.50
2018-07-23T09:12:31.991Z,5.10
2018-07-23T09:13:32.246Z,5.30
2018-07-23T09:14:32.502Z,5.60
2018-07-23T09:15:32.757Z,5.60
2018-07-23T09:16:33.011Z,5.40
2018-07-23T09:17:33.265Z,5.20
2018-07-23T09:18:33.520Z,4.90
2018-07-23T09:19:33.776Z,5.80
2018-07-23T09:20:34.031Z,5.80
2018-07-23T09:21:34.287Z,6.90
2018-07-23T09:22:34.543Z,6.40
2018-07-23T09:23:34.802Z,6.80
2018-07-23T09:24:35.052Z,6.30
2018-07-23T09:25:35.309Z,6.20
2018-07-23T09:26:35.568Z,7.00
2018-07-23T09:27:35.821Z,6.90
2018-07-23T09:28:36.074Z,6.20
2018-07-23T09:29:36.331Z,6.10
2018-07-23T09:30:36.592Z,6.20
2018-07-23T09:31:36.843Z,6.20
2018-07-23T09:32:37.101Z,6.40
2018-07-23T09:33:37.362Z,6.00
2018-07-23T09:34:37.615Z,5.00
2018-07-23T09:35:37.873Z,5.30
2018-07-23T09:36:38.130Z,5.70
2018-07-23T09:37:38.387Z,6.30
2018-07-23T09:38:38.644Z,6.40
2018-07-23T09:39:38.891Z,7.20
2018-07-23T09:40:39.146Z,7.60
2018-07-23T09:41:39.401Z,33.60
2018-07-23T09:42:39.656Z,11.30
2018-07-23T09:43:39.912Z,6.80
2018-07-23T09:44:40.168Z,5.00
2018-07-23T09:45:40.470Z,5.30
2018-07-23T09:46:40.684Z,5.00
2018-07-23T09:47:40.937Z,5.20
2018-07-23T09:48:41.191Z,4.70
2018-07-23T09:49:41.447Z,4.00
2018-07-23T09:50:41.704Z,4.60
2018-07-23T09:51:42.022Z,4.80
2018-07-23T09:52:42.253Z,4.50
2018-07-23T09:53:42.505Z,4.40
2018-07-23T09:54:42.762Z,4.30
2018-07-23T09:55:43.019Z,4.20
2018-07-23T09:56:43.276Z,4.60
2018-07-23T09:57:43.530Z,4.20
2018-07-23T09:58:43.787Z,4.20
2018-07-23T09:59:44.043Z,4.10
2018-07-23T10:00:44.297Z,4.00
2018-07-23T10:01:44.554Z,4.90
2018-07-23T10:02:44.811Z,4.50
2018-07-23T10:03:45.068Z,5.10
2018-07-23T10:04:45.324Z,4.40
2018-07-23T10:05:45.579Z,4.50
2018-07-23T10:06:45.834Z,4.80
2018-07-23T10:07:46.092Z,4.50
2018-07-23T10:08:46.347Z,4.30
2018-07-23T10:09:46.600Z,3.90
2018-07-23T10:10:46.863Z,3.90
2018-07-23T10:11:47.129Z,3.90
2018-07-23T10:12:47.384Z,4.50
2018-07-23T10:13:47.641Z,3.50
2018-07-23T10:14:47.897Z,4.10
2018-07-23T10:15:48.156Z,3.60
2018-07-23T10:16:48.409Z,4.20
2018-07-23T10:17:48.668Z,4.20
2018-07-23T10:18:48.921Z,4.30
2018-07-23T10:19:49.177Z,4.30
2018-07-23T10:20:49.434Z,3.90
2018-07-23T10:21:49.687Z,4.10
2018-07-23T10:22:49.947Z,4.40
2018-07-23T10:23:50.197Z,4.60
2018-07-23T10:24:50.452Z,4.60
2018-07-23T10:25:50.710Z,4.30
2018-07-23T10:26:50.965Z,4.20
2018-07-23T10:27:51.221Z,4.40
2018-07-23T10:28:51.475Z,4.80
2018-07-23T10:29:51.734Z,5.50
2018-07-23T10:30:51.989Z,4.60
2018-07-23T10:31:52.246Z,4.10
2018-07-23T10:32:52.501Z,4.30
2018-07-23T10:33:52.762Z,4.40
2018-07-23T10:34:53.014Z,3.90
2018-07-23T10:35:53.271Z,3.90
2018-07-23T10:36:53.530Z,4.20
2018-07-23T10:37:53.794Z,4.60
2018-07-23T10:38:54.040Z,3.90
2018-07-23T10:39:54.297Z,4.10
2018-07-23T10:40:54.559Z,4.70
2018-07-23T10:41:54.817Z,4.50
2018-07-23T10:42:55.070Z,4.30
2018-07-23T10:43:55.329Z,6.50
2018-07-23T10:44:55.585Z,6.50
2018-07-23T10:45:55.844Z,4.50
2018-07-23T10:46:56.103Z,4.60
2018-07-23T10:47:56.365Z,4.10
2018-07-23T10:48:56.618Z,4.30
2018-07-23T10:49:56.876Z,4.60
2018-07-23T10:50:57.147Z,4.10
2018-07-23T10:51:57.390Z,4.40
2018-07-23T10:52:57.647Z,4.30
2018-07-23T10:53:57.904Z,4.00
2018-07-23T10:54:58.158Z,5.00
2018-07-23T10:55:58.416Z,5.80
2018-07-23T10:56:58.674Z,4.60
2018-07-23T10:57:58.930Z,4.10
2018-07-23T10:58:59.188Z,4.10
2018-07-23T10:59:59.443Z,4.10
2018-07-23T11:00:59.698Z,4.30
2018-07-23T11:01:59.954Z,3.90
2018-07-23T11:03:00.210Z,4.50
2018-07-23T11:04:00.466Z,4.20
2018-07-23T11:05:00.722Z,4.50
2018-07-23T11:06:00.979Z,4.10
2018-07-23T11:07:01.233Z,4.40
2018-07-23T11:08:01.488Z,4.20
2018-07-23T11:09:01.743Z,4.30
2018-07-23T11:10:01.998Z,3.90
2018-07-23T11:11:02.255Z,3.90
2018-07-23T11:12:02.511Z,3.50
2018-07-23T11:13:02.767Z,3.20
2018-07-23T11:14:03.022Z,3.20
2018-07-23T11:15:03.279Z,3.70
2018-07-23T11:16:03.534Z,3.50
2018-07-23T11:17:03.789Z,3.70
2018-07-23T11:18:04.047Z,3.50
2018-07-23T11:19:04.304Z,3.40
2018-07-23T11:20:04.562Z,3.00
2018-07-23T11:21:04.921Z,3.10
2018-07-23T11:22:05.082Z,3.70
2018-07-23T11:23:05.335Z,3.50
2018-07-23T11:24:05.655Z,3.00
2018-07-23T11:25:38.415Z,2.80
2018-07-23T11:26:06.107Z,3.00
2018-07-23T11:27:06.362Z,3.30
2018-07-23T11:28:06.621Z,3.50
2018-07-23T11:29:06.876Z,3.00
2018-07-23T11:30:07.134Z,3.00
2018-07-23T11:31:07.391Z,3.20
2018-07-23T11:32:07.696Z,2.80
2018-07-23T11:33:07.911Z,2.60
2018-07-23T11:34:08.168Z,2.50
2018-07-23T11:35:08.427Z,2.80
2018-07-23T11:36:08.684Z,2.80
2018-07-23T11:37:08.943Z,2.50
2018-07-23T11:38:09.203Z,2.60
2018-07-23T11:39:09.460Z,2.80
2018-07-23T11:40:09.721Z,2.60
2018-07-23T11:41:09.979Z,2.60
2018-07-23T11:42:10.237Z,2.50
2018-07-23T11:43:10.498Z,2.50
2018-07-23T11:44:10.755Z,2.20
2018-07-23T11:45:11.064Z,2.30
2018-07-23T11:46:24.423Z,2.10
2018-07-23T11:47:11.547Z,2.20
2018-07-23T11:48:11.790Z,2.20
2018-07-23T11:49:12.047Z,2.00
2018-07-23T11:50:12.304Z,2.80
2018-07-23T11:51:12.563Z,2.30
2018-07-23T11:52:14.356Z,2.20
2018-07-23T11:53:13.074Z,2.40
2018-07-23T11:54:13.328Z,2.30
2018-07-23T11:55:13.586Z,2.40
2018-07-23T11:56:13.842Z,3.10
2018-07-23T11:57:14.094Z,2.80
2018-07-23T11:58:14.358Z,2.60
2018-07-23T11:59:14.615Z,2.50
2018-07-23T12:00:14.874Z,2.00
2018-07-23T12:01:15.132Z,1.90
2018-07-23T12:02:15.388Z,2.30
2018-07-23T12:03:15.650Z,1.90
2018-07-23T12:04:15.927Z,1.70
2018-07-23T12:05:16.163Z,1.70
2018-07-23T12:06:16.420Z,1.90
2018-07-23T12:07:16.678Z,1.70
2018-07-23T12:08:16.937Z,1.70
2018-07-23T12:09:17.194Z,2.20
2018-07-23T12:10:17.509Z,1.90
2018-07-23T12:11:17.790Z,2.10
2018-07-23T12:12:18.051Z,2.20
2018-07-23T12:13:18.305Z,2.00
2018-07-23T12:14:18.565Z,2.10
2018-07-23T12:15:18.826Z,2.10
2018-07-23T12:16:19.085Z,1.90
2018-07-23T12:17:19.433Z,1.70
2018-07-23T12:18:19.602Z,1.90
2018-07-23T12:19:19.863Z,2.00
2018-07-23T12:20:20.119Z,1.70
2018-07-23T12:21:20.378Z,1.70
2018-07-23T12:22:20.635Z,1.90
2018-07-23T12:23:20.890Z,1.60
2018-07-23T12:24:21.150Z,1.90
2018-07-23T12:25:21.409Z,1.90
2018-07-23T12:26:21.667Z,1.90
2018-07-23T12:27:21.925Z,2.10
2018-07-23T12:28:22.185Z,1.90
2018-07-23T12:29:22.438Z,3.00
2018-07-23T12:30:22.695Z,1.50
2018-07-23T12:31:22.953Z,1.90
2018-07-23T12:32:23.250Z,1.80
2018-07-23T12:33:23.466Z,2.00
2018-07-23T12:34:23.723Z,2.10
2018-07-23T12:35:23.984Z,1.80
2018-07-23T12:36:24.239Z,1.60
2018-07-23T12:37:24.494Z,1.90
2018-07-23T12:38:24.751Z,1.80
2018-07-23T12:39:25.060Z,1.70
2018-07-23T12:40:26.681Z,1.90
2018-07-23T12:41:25.584Z,1.80
2018-07-23T12:42:25.845Z,1.90
2018-07-23T12:43:26.104Z,2.10
2018-07-23T12:44:28.543Z,2.00
2018-07-23T12:45:26.819Z,2.40
2018-07-23T12:46:27.608Z,2.20
2018-07-23T12:47:28.971Z,2.20
2018-07-23T12:48:28.010Z,2.10
2018-07-23T12:49:28.343Z,2.10
2018-07-23T12:50:29.710Z,1.90
2018-07-23T12:51:29.158Z,2.30
2018-07-23T12:52:29.654Z,2.00
2018-07-23T12:53:30.032Z,2.30
2018-07-23T12:54:30.344Z,2.30
2018-07-23T12:55:30.423Z,2.20
2018-07-23T12:56:30.550Z,2.10
2018-07-23T12:57:31.867Z,2.00
2018-07-23T12:58:32.097Z,2.10
2018-07-23T12:59:35.598Z,2.20
2018-07-23T13:00:32.805Z,2.10
2018-07-23T13:01:32.092Z,2.40
2018-07-23T13:02:32.346Z,2.20
2018-07-23T13:03:32.602Z,2.20
2018-07-23T13:04:32.858Z,2.20
2018-07-23T13:05:33.116Z,2.30